Snow/Ice From: 24-10-2018 05:00 Until: 09:00 warning for: Snow/Ice Level: Yellow info button
suomi:
Liikennesää: Ajokeli muuttuu huonoksi aamulla tienpintojen jäätymisen vuoksi.

svenska:
Trafikvädret: Väglaget blir dåligt på morgonen p.g.a. tillfrysning av vägytor.

english:
Traffic weather warning: Bad road conditions are expected in the morning because of ice-covered roads. 


Thunder radar more information blitzortung!


Löydät sääaseman tiedot myös:

European Weather Network

Finland Weather Exchange

Weather Underground

AWEKAS



Weather Underground säähistoriasivu

Päivittäin yhteenveto Heinäkuu 16, 2017 Yksiköt:  Englantilaiset    Metriset   Molemmat
« Edellinen Päivä
Seuraava Päivä »
Päivittäin Viikoittain Kuukausittain Vuosittain Mukautettu
  Korkea: Matala: Keskiarvo:
Lämpötila: TemperatureF °F 40.5 °F 59.8 °F
Kastepiste: DewpointF °F 38.8 °F 46.3 °F
Kosteus: Humidity % 40 % 64 %
Tuulen nopeus: WindSpeedMPH mph 0.0 mph 2.1 mph
Tuulenpuuska: WindSpeedGustMPH mph - -
Tuuli:- - SSW
Ilmanpaine: PressureIn in 29.76 in -
Sade: 0.00 in    
Historical Graphs
 
 
Taulukkotiedot Heinäkuu 16, 2017
Aika Lämpötila Kastepiste Ilmanpaine Tuuli Tuulen nopeus Tuulenpuuska Kosteus Sademäärä (tunneittain)
TemperatureF °F DewpointF °F PressureIn in Calm     Humidity % HourlyPrecipIn in
00:00 49.8 °F 45.1 °F 30.01 in Calm     84 % 0.00 in
00:15 48.7 °F 44.4 °F 30.01 in Calm     85 % 0.00 in
00:30 48.0 °F 44.1 °F 30.01 in Calm     86 % 0.00 in
00:45 47.5 °F 45.3 °F 30.01 in Calm     92 % 0.00 in
01:00 46.6 °F 43.2 °F 30.02 in Calm     88 % 0.00 in
01:15 46.0 °F 43.3 °F 30.02 in Calm     90 % 0.00 in
01:30 45.3 °F 42.3 °F 30.02 in Calm     89 % 0.00 in
01:45 44.4 °F 41.7 °F 30.02 in Calm     90 % 0.00 in
02:00 43.9 °F 41.4 °F 30.02 in Calm     91 % 0.00 in
02:15 43.3 °F 41.0 °F 30.02 in Calm     91 % 0.00 in
02:30 43.2 °F 41.0 °F 30.01 in Calm     92 % 0.00 in
02:45 42.4 °F 40.3 °F 30.02 in Calm     92 % 0.00 in
03:00 42.3 °F 40.3 °F 30.02 in Calm     93 % 0.00 in
03:15 42.1 °F 40.1 °F 30.02 in Calm     93 % 0.00 in
03:30 41.7 °F 39.7 °F 30.02 in Calm     93 % 0.00 in
03:45 41.4 °F 39.6 °F 30.02 in Calm     93 % 0.00 in
04:00 41.2 °F 39.2 °F 30.02 in Calm     93 % 0.00 in
04:15 41.0 °F 39.4 °F 30.02 in Calm     94 % 0.00 in
04:30 40.8 °F 39.2 °F 30.02 in Calm     94 % 0.00 in
04:45 40.5 °F 38.8 °F 30.02 in Calm     94 % 0.00 in
05:00 40.8 °F 39.6 °F 30.01 in Calm     95 % 0.00 in
05:15 41.4 °F 39.9 °F 30.01 in Calm     95 % 0.00 in
05:30 41.5 °F 40.3 °F 30.01 in Calm     95 % 0.00 in
05:45 41.7 °F 40.5 °F 30.01 in Calm     95 % 0.00 in
06:00 42.4 °F 41.4 °F 30.01 in Calm   1.0 mph 96 % 0.00 in
06:15 43.2 °F 42.1 °F 30.01 in Calm     96 % 0.00 in
06:30 44.2 °F 43.2 °F 30.00 in Calm   1.0 mph 96 % 0.00 in
06:45 45.1 °F 43.9 °F 30.00 in Calm     95 % 0.00 in
07:00 46.6 °F 44.6 °F 30.00 in Calm     93 % 0.00 in
07:15 47.8 °F 45.3 °F 30.00 in Calm     91 % 0.00 in
07:30 49.3 °F 46.2 °F 29.99 in Calm   1.0 mph 89 % 0.00 in
07:45 51.3 °F 46.8 °F 29.99 in Calm   4.0 mph 85 % 0.00 in
08:00 53.1 °F 47.7 °F 29.99 in Calm   3.0 mph 82 % 0.00 in
08:15 54.9 °F 48.4 °F 29.99 in Calm   5.0 mph 79 % 0.00 in
08:30 56.8 °F 48.4 °F 29.98 in SSE 1.0 mph 6.0 mph 73 % 0.00 in
08:45 58.8 °F 47.8 °F 29.98 in SSE 2.0 mph 8.0 mph 67 % 0.00 in
09:00 60.6 °F 48.4 °F 29.97 in South 2.0 mph 7.0 mph 64 % 0.00 in
09:15 62.1 °F 48.7 °F 29.97 in South 3.0 mph 9.0 mph 62 % 0.00 in
09:30 63.0 °F 48.4 °F 29.97 in South 2.0 mph 8.0 mph 59 % 0.00 in
09:45 64.2 °F 50.2 °F 29.96 in SW 1.0 mph 8.0 mph 60 % 0.00 in
10:00 65.1 °F 49.1 °F 29.96 in South 3.0 mph 9.0 mph 56 % 0.00 in
10:15 65.8 °F 49.3 °F 29.96 in SSE 3.0 mph 13.0 mph 55 % 0.00 in
10:30 66.7 °F 50.0 °F 29.95 in South 4.0 mph 11.0 mph 55 % 0.00 in
10:45 67.5 °F 50.2 °F 29.95 in SSW 3.0 mph 11.0 mph 54 % 0.00 in
11:00 68.4 °F 51.1 °F 29.95 in South 3.0 mph 11.0 mph 54 % 0.00 in
11:15 69.4 °F 51.1 °F 29.95 in South 3.0 mph 11.0 mph 52 % 0.00 in
11:30 70.5 °F 51.4 °F 29.94 in South 2.0 mph 8.0 mph 51 % 0.00 in
11:45 71.1 °F 50.4 °F 29.94 in South 4.0 mph 11.0 mph 48 % 0.00 in
12:00 71.2 °F 51.1 °F 29.93 in SSW 5.0 mph 10.0 mph 49 % 0.00 in
12:15 71.6 °F 52.0 °F 29.93 in South 5.0 mph 14.0 mph 50 % 0.00 in
12:30 71.4 °F 51.8 °F 29.93 in South 6.0 mph 16.0 mph 50 % 0.00 in
12:45 71.4 °F 52.9 °F 29.93 in SSW 5.0 mph 16.0 mph 52 % 0.00 in
13:00 71.8 °F 53.2 °F 29.92 in SSW 6.0 mph 14.0 mph 52 % 0.00 in
13:15 72.9 °F 52.0 °F 29.92 in SSW 5.0 mph 14.0 mph 48 % 0.00 in
13:30 72.7 °F 52.5 °F 29.91 in SSW 5.0 mph 12.0 mph 49 % 0.00 in
13:45 73.6 °F 52.2 °F 29.91 in SSW 5.0 mph 12.0 mph 47 % 0.00 in
14:00 73.9 °F 51.3 °F 29.91 in SSW 5.0 mph 11.0 mph 45 % 0.00 in
14:15 73.9 °F 50.0 °F 29.90 in South 5.0 mph 13.0 mph 43 % 0.00 in
14:30 73.8 °F 49.8 °F 29.90 in SSW 5.0 mph 15.0 mph 43 % 0.00 in
14:45 73.9 °F 49.5 °F 29.89 in SSW 5.0 mph 12.0 mph 42 % 0.00 in
15:00 74.1 °F 50.2 °F 29.89 in SW 4.0 mph 10.0 mph 43 % 0.00 in
15:15 74.8 °F 48.9 °F 29.88 in SSW 4.0 mph 12.0 mph 40 % 0.00 in
15:30 74.1 °F 50.2 °F 29.88 in SSW 5.0 mph 11.0 mph 43 % 0.00 in
15:45 74.8 °F 50.9 °F 29.87 in SSW 5.0 mph 14.0 mph 43 % 0.00 in
16:00 74.8 °F 49.5 °F 29.87 in SSW 5.0 mph 14.0 mph 41 % 0.00 in
16:15 73.9 °F 49.5 °F 29.87 in SSW 4.0 mph 13.0 mph 42 % 0.00 in
16:30 73.9 °F 51.3 °F 29.86 in SSW 5.0 mph 12.0 mph 45 % 0.00 in
16:45 73.6 °F 50.2 °F 29.86 in SSW 5.0 mph 12.0 mph 44 % 0.00 in
17:00 73.8 °F 49.8 °F 29.86 in SSW 4.0 mph 11.0 mph 43 % 0.00 in
17:15 73.8 °F 49.8 °F 29.86 in SSW 5.0 mph 12.0 mph 43 % 0.00 in
17:30 73.8 °F 49.3 °F 29.86 in SSW 4.0 mph 12.0 mph 42 % 0.00 in
17:45 73.6 °F 48.4 °F 29.85 in SSW 5.0 mph 15.0 mph 41 % 0.00 in
18:00 73.0 °F 49.1 °F 29.85 in SSW 5.0 mph 15.0 mph 43 % 0.00 in
18:15 72.7 °F 48.9 °F 29.84 in SW 4.0 mph 9.0 mph 43 % 0.00 in
18:30 71.8 °F 48.6 °F 29.84 in SSW 4.0 mph 9.0 mph 44 % 0.00 in
18:45 71.6 °F 50.4 °F 29.84 in SW 2.0 mph 8.0 mph 47 % 0.00 in
19:00 70.7 °F 50.5 °F 29.83 in SSW 3.0 mph 10.0 mph 49 % 0.00 in
19:15 69.6 °F 48.6 °F 29.83 in SSW 3.0 mph 11.0 mph 47 % 0.00 in
19:30 68.9 °F 48.4 °F 29.83 in SSW 4.0 mph 13.0 mph 48 % 0.00 in
19:45 68.7 °F 49.8 °F 29.82 in SSW 2.0 mph 9.0 mph 51 % 0.00 in
20:00 68.5 °F 49.8 °F 29.82 in SSW 2.0 mph 7.0 mph 51 % 0.00 in
20:15 68.2 °F 48.9 °F 29.82 in SSW 3.0 mph 11.0 mph 50 % 0.00 in
20:30 67.8 °F 48.6 °F 29.81 in SSW 3.0 mph 8.0 mph 50 % 0.00 in
20:45 67.3 °F 46.4 °F 29.81 in SSW 4.0 mph 9.0 mph 47 % 0.00 in
21:00 66.7 °F 44.8 °F 29.80 in SSW 4.0 mph 11.0 mph 45 % 0.00 in
21:15 66.2 °F 44.8 °F 29.80 in SW 2.0 mph 8.0 mph 46 % 0.00 in
21:30 65.7 °F 45.3 °F 29.79 in SSW 1.0 mph 4.0 mph 48 % 0.00 in
21:45 65.1 °F 46.6 °F 29.79 in Calm   3.0 mph 51 % 0.00 in
22:00 64.6 °F 46.0 °F 29.78 in Calm   4.0 mph 51 % 0.00 in
22:15 64.2 °F 46.2 °F 29.78 in Calm   2.0 mph 52 % 0.00 in
22:30 63.9 °F 46.4 °F 29.77 in Calm   3.0 mph 53 % 0.00 in
22:45 63.1 °F 46.2 °F 29.77 in Calm   3.0 mph 54 % 0.00 in
23:00 62.4 °F 47.1 °F 29.77 in Calm   2.0 mph 57 % 0.00 in
23:30 61.9 °F 47.3 °F 29.76 in Calm   2.0 mph 59 % 0.00 in
23:45 61.5 °F 47.8 °F 29.76 in Calm   1.0 mph 61 % 0.00 in
Esan sääasema
Terveisin Weather Underground - 2.75 mb

Alkuperäinen skripti  Jim McMurry - jmcmurry@mwt.net Sovitettu myös templatelle  Wim van der Kuil - Leuven-Template.eu

Laitteet joita käytämme:

Sääasema
Davis VP2

Sääasemaohjelma
Cumulus

Sääaseman tietokone
Asus EeePC

Palveluntarjoaja
Suncomet

Davis VP2

Cumulus

Asus EeePC

Suncomet